createdAt,value
2023-12-30T00:00:18.761Z,6.00
2023-12-30T00:03:08.640Z,6.40
2023-12-30T00:05:37.247Z,7.50
2023-12-30T00:08:06.115Z,5.40
2023-12-30T00:10:34.769Z,6.10
2023-12-30T00:13:04.500Z,6.30
2023-12-30T00:15:33.469Z,6.30
2023-12-30T00:18:02.025Z,5.40
2023-12-30T00:20:30.745Z,5.30
2023-12-30T00:22:59.339Z,5.60
2023-12-30T00:25:28.370Z,5.20
2023-12-30T00:27:57.523Z,4.50
2023-12-30T00:30:25.934Z,4.40
2023-12-30T00:32:54.784Z,4.20
2023-12-30T00:35:24.117Z,4.30
2023-12-30T00:37:54.615Z,5.10
2023-12-30T00:40:26.895Z,5.60
2023-12-30T00:42:56.350Z,7.80
2023-12-30T00:45:24.782Z,5.50
2023-12-30T00:47:53.657Z,4.40
2023-12-30T00:50:22.164Z,4.30
2023-12-30T00:52:50.698Z,4.40
2023-12-30T00:55:19.458Z,6.20
2023-12-30T00:57:47.923Z,5.50
2023-12-30T01:00:16.680Z,6.80
2023-12-30T01:02:45.060Z,6.00
2023-12-30T01:05:13.570Z,5.00
2023-12-30T01:07:42.254Z,4.80
2023-12-30T01:10:10.922Z,4.90
2023-12-30T01:12:39.418Z,5.50
2023-12-30T01:15:08.790Z,5.40
2023-12-30T01:17:37.317Z,5.30
2023-12-30T01:20:08.372Z,8.40
2023-12-30T01:22:38.252Z,6.60
2023-12-30T01:25:07.717Z,7.30
2023-12-30T01:27:36.461Z,9.30
2023-12-30T01:30:05.634Z,6.20
2023-12-30T01:32:34.253Z,6.80
2023-12-30T01:35:02.544Z,6.10
2023-12-30T01:37:31.417Z,6.40
2023-12-30T01:39:59.930Z,6.50
2023-12-30T01:42:28.680Z,7.00
2023-12-30T01:44:57.402Z,6.70
2023-12-30T01:47:26.272Z,6.80
2023-12-30T01:49:54.984Z,6.70
2023-12-30T01:52:24.110Z,6.90
2023-12-30T01:54:53.148Z,8.70
2023-12-30T01:57:22.422Z,8.10
2023-12-30T01:59:52.524Z,7.60
2023-12-30T02:02:22.896Z,7.20
2023-12-30T02:04:51.697Z,7.20
2023-12-30T02:07:20.271Z,7.20
2023-12-30T02:09:48.851Z,7.20
2023-12-30T02:12:17.702Z,6.20
2023-12-30T02:14:46.452Z,7.80
2023-12-30T02:17:14.878Z,7.40
2023-12-30T02:19:43.515Z,7.60
2023-12-30T02:22:12.452Z,6.50
2023-12-30T02:24:40.966Z,6.50
2023-12-30T02:27:10.936Z,6.10
2023-12-30T02:29:39.386Z,6.60
2023-12-30T02:32:07.883Z,7.70
2023-12-30T02:34:36.829Z,7.00
2023-12-30T02:37:05.687Z,7.00
2023-12-30T02:39:34.193Z,7.20
2023-12-30T02:42:02.783Z,6.40
2023-12-30T02:44:31.416Z,6.80
2023-12-30T02:47:00.181Z,6.70
2023-12-30T02:49:29.359Z,7.00
2023-12-30T02:51:58.956Z,7.10
2023-12-30T02:54:28.868Z,8.00
2023-12-30T02:56:58.192Z,7.30
2023-12-30T02:59:26.639Z,7.50
2023-12-30T03:01:55.413Z,6.30
2023-12-30T03:04:24.417Z,6.40
2023-12-30T03:06:52.972Z,6.60
2023-12-30T03:09:21.420Z,6.50
2023-12-30T03:11:50.290Z,6.70
2023-12-30T03:14:18.869Z,7.10
2023-12-30T03:16:47.355Z,7.00
2023-12-30T03:19:16.249Z,7.60
2023-12-30T03:21:46.481Z,6.30
2023-12-30T03:24:15.473Z,7.00
2023-12-30T03:26:43.906Z,7.20
2023-12-30T03:29:12.807Z,6.20
2023-12-30T03:31:43.015Z,6.50
2023-12-30T03:34:12.610Z,6.20
2023-12-30T03:36:41.074Z,6.10
2023-12-30T03:39:09.616Z,6.00
2023-12-30T03:41:38.038Z,6.20
2023-12-30T03:44:06.518Z,6.50
2023-12-30T03:46:34.923Z,6.90
2023-12-30T03:49:03.538Z,6.60
2023-12-30T03:51:32.431Z,6.50
2023-12-30T03:54:01.386Z,6.20
2023-12-30T03:56:30.079Z,6.40
2023-12-30T03:59:01.030Z,6.80
2023-12-30T04:01:29.794Z,6.60
2023-12-30T04:03:58.533Z,6.60
2023-12-30T04:06:27.110Z,6.40
2023-12-30T04:08:55.755Z,6.10
2023-12-30T04:11:24.606Z,6.70
2023-12-30T04:13:53.077Z,6.80
2023-12-30T04:16:22.073Z,7.30
2023-12-30T04:18:50.708Z,7.40
2023-12-30T04:21:19.210Z,7.50
2023-12-30T04:23:47.564Z,7.00
2023-12-30T04:26:16.287Z,7.60
2023-12-30T04:28:46.704Z,6.80
2023-12-30T04:31:15.487Z,7.10
2023-12-30T04:33:44.113Z,6.70
2023-12-30T04:36:13.328Z,6.20
2023-12-30T04:38:43.567Z,6.00
2023-12-30T04:41:13.998Z,6.10
2023-12-30T04:43:42.435Z,6.20
2023-12-30T04:46:13.420Z,6.40
2023-12-30T04:48:42.045Z,6.70
2023-12-30T04:51:11.466Z,7.00
2023-12-30T04:53:39.889Z,7.10
2023-12-30T04:56:09.870Z,7.20
2023-12-30T04:58:38.391Z,7.70
2023-12-30T05:01:07.115Z,6.80
2023-12-30T05:03:37.057Z,6.80
2023-12-30T05:06:05.601Z,7.30
2023-12-30T05:08:34.495Z,7.30
2023-12-30T05:11:07.831Z,8.20
2023-12-30T05:13:36.289Z,6.80
2023-12-30T05:16:06.041Z,6.60
2023-12-30T05:18:34.886Z,6.90
2023-12-30T05:21:03.946Z,8.80
2023-12-30T05:23:35.633Z,7.50
2023-12-30T05:26:04.856Z,9.40
2023-12-30T05:28:33.731Z,12.20
2023-12-30T05:31:03.521Z,9.00
2023-12-30T05:33:32.353Z,8.00
2023-12-30T05:36:01.229Z,7.40
2023-12-30T05:38:29.617Z,6.30
2023-12-30T05:40:58.197Z,6.80
2023-12-30T05:43:27.349Z,7.00
2023-12-30T05:45:56.347Z,8.30
2023-12-30T05:48:25.694Z,9.40
2023-12-30T05:50:54.478Z,6.70
2023-12-30T05:53:23.380Z,9.60
2023-12-30T05:55:54.147Z,8.20
2023-12-30T05:58:23.268Z,11.20
2023-12-30T06:00:52.113Z,10.40
2023-12-30T06:03:21.357Z,9.40
2023-12-30T06:05:50.107Z,8.80
2023-12-30T06:08:19.189Z,10.60
2023-12-30T06:10:52.738Z,6.50
2023-12-30T06:13:21.923Z,6.60
2023-12-30T06:15:52.368Z,6.50
2023-12-30T06:18:21.042Z,6.40
2023-12-30T06:20:49.405Z,7.40
2023-12-30T06:23:18.014Z,7.60
2023-12-30T06:25:46.514Z,7.10
2023-12-30T06:28:15.895Z,7.00
2023-12-30T06:30:44.938Z,7.20
2023-12-30T06:33:14.279Z,7.10
2023-12-30T06:35:42.829Z,7.10
2023-12-30T06:38:11.317Z,7.70
2023-12-30T06:40:40.345Z,6.70
2023-12-30T06:43:12.439Z,8.10
2023-12-30T06:45:41.054Z,8.10
2023-12-30T06:48:09.873Z,8.10
2023-12-30T06:50:38.366Z,6.80
2023-12-30T06:53:07.133Z,6.90
2023-12-30T06:55:41.940Z,6.80
2023-12-30T06:58:16.081Z,7.30
2023-12-30T07:00:44.615Z,9.60
2023-12-30T07:03:13.156Z,11.70
2023-12-30T07:05:42.211Z,7.70
2023-12-30T07:08:10.727Z,8.50
2023-12-30T07:10:41.731Z,8.00
2023-12-30T07:13:11.134Z,6.50
2023-12-30T07:15:40.157Z,6.00
2023-12-30T07:18:08.879Z,5.40
2023-12-30T07:20:37.500Z,5.50
2023-12-30T07:23:07.178Z,6.40
2023-12-30T07:25:35.635Z,6.90
2023-12-30T07:28:04.860Z,9.60
2023-12-30T07:30:33.380Z,5.50
2023-12-30T07:33:04.491Z,6.80
2023-12-30T07:35:33.180Z,6.90
2023-12-30T07:38:01.849Z,6.00
2023-12-30T07:40:30.588Z,5.30
2023-12-30T07:42:59.757Z,4.40
2023-12-30T07:45:28.472Z,5.40
2023-12-30T07:47:57.192Z,5.40
2023-12-30T07:50:25.857Z,6.00
2023-12-30T07:52:54.642Z,4.90
2023-12-30T07:55:23.466Z,22.80
2023-12-30T07:57:52.149Z,6.40
2023-12-30T08:00:20.917Z,5.10
2023-12-30T08:02:49.536Z,5.70
2023-12-30T08:05:19.618Z,4.10
2023-12-30T08:07:48.176Z,7.80
2023-12-30T08:10:16.956Z,6.20
2023-12-30T08:12:45.584Z,6.00
2023-12-30T08:15:14.327Z,4.50
2023-12-30T08:17:43.002Z,6.20
2023-12-30T08:20:11.940Z,5.00
2023-12-30T08:22:40.894Z,4.60
2023-12-30T08:25:12.865Z,8.30
2023-12-30T08:27:41.506Z,9.50
2023-12-30T08:30:10.418Z,10.10
2023-12-30T08:32:39.046Z,13.00
2023-12-30T08:35:09.181Z,11.20
2023-12-30T08:37:37.947Z,20.50
2023-12-30T08:40:08.089Z,30.80
2023-12-30T08:42:37.382Z,51.60
2023-12-30T08:45:07.280Z,42.30
2023-12-30T08:47:36.306Z,25.00
2023-12-30T08:50:05.530Z,17.70
2023-12-30T08:52:34.107Z,27.80
2023-12-30T08:55:03.053Z,44.30
2023-12-30T08:57:32.100Z,47.40
2023-12-30T09:00:00.696Z,46.30
2023-12-30T09:02:29.634Z,49.40
2023-12-30T09:04:58.813Z,42.50
2023-12-30T09:07:27.531Z,30.60
2023-12-30T09:09:56.477Z,22.40
2023-12-30T09:12:25.539Z,20.70
2023-12-30T09:14:54.376Z,22.60
2023-12-30T09:17:23.055Z,18.80
2023-12-30T09:19:51.794Z,20.60
2023-12-30T09:22:20.965Z,16.10
2023-12-30T09:24:50.463Z,15.30
2023-12-30T09:27:19.420Z,13.20
2023-12-30T09:29:47.994Z,11.90
2023-12-30T09:32:17.126Z,8.50
2023-12-30T09:34:45.687Z,8.10
2023-12-30T09:37:16.402Z,8.40
2023-12-30T09:39:45.545Z,7.60
2023-12-30T09:42:14.330Z,7.40
2023-12-30T09:44:43.117Z,8.00
2023-12-30T09:47:12.705Z,9.50
2023-12-30T09:49:42.349Z,12.40
2023-12-30T09:52:10.995Z,10.30
2023-12-30T09:54:48.309Z,9.60
2023-12-30T09:57:18.392Z,9.60
2023-12-30T09:59:51.005Z,10.70
2023-12-30T10:02:19.659Z,13.20
2023-12-30T10:04:51.146Z,15.50
2023-12-30T10:07:20.640Z,16.80
2023-12-30T10:09:51.885Z,15.60
2023-12-30T10:12:20.526Z,15.80
2023-12-30T10:14:49.217Z,12.60
2023-12-30T10:17:19.641Z,7.00
2023-12-30T10:19:48.802Z,5.90
2023-12-30T10:22:17.886Z,9.20
2023-12-30T10:24:46.497Z,5.00
2023-12-30T10:27:16.263Z,5.10
2023-12-30T10:29:51.156Z,5.80
2023-12-30T10:32:23.752Z,5.20
2023-12-30T10:34:52.566Z,5.50
2023-12-30T10:37:24.690Z,5.70
2023-12-30T10:39:55.479Z,5.20
2023-12-30T10:42:24.326Z,5.30
2023-12-30T10:44:53.191Z,5.80
2023-12-30T10:47:23.810Z,5.40
2023-12-30T10:49:56.003Z,5.60
2023-12-30T10:52:28.318Z,5.90
2023-12-30T10:55:10.385Z,5.80
2023-12-30T10:57:46.187Z,10.60
2023-12-30T11:00:17.696Z,9.40
2023-12-30T11:02:48.441Z,12.20
2023-12-30T11:05:49.269Z,12.10
2023-12-30T11:08:19.973Z,6.20
2023-12-30T11:10:48.699Z,9.10
2023-12-30T11:13:19.856Z,9.30
2023-12-30T11:15:48.462Z,10.10
2023-12-30T11:18:53.103Z,7.90
2023-12-30T11:21:45.125Z,7.70
2023-12-30T11:24:19.994Z,7.00
2023-12-30T11:26:49.371Z,4.70
2023-12-30T11:29:19.834Z,4.90
2023-12-30T11:31:50.001Z,5.10
2023-12-30T11:34:19.825Z,4.00
2023-12-30T11:36:49.110Z,5.10
2023-12-30T11:39:41.865Z,5.00
2023-12-30T11:42:11.314Z,4.70
2023-12-30T11:44:40.877Z,4.70
2023-12-30T11:47:09.547Z,4.40
2023-12-30T11:49:38.710Z,5.60
2023-12-30T11:52:09.540Z,4.20
2023-12-30T11:54:40.122Z,5.10
2023-12-30T11:57:10.854Z,4.90
2023-12-30T11:59:39.650Z,4.70
2023-12-30T12:02:15.900Z,4.90
2023-12-30T12:04:44.911Z,4.30
2023-12-30T12:07:14.533Z,4.20
2023-12-30T12:09:44.683Z,4.00
2023-12-30T12:12:13.819Z,4.80
2023-12-30T12:14:54.274Z,4.90
2023-12-30T12:17:24.529Z,4.80
2023-12-30T12:19:53.678Z,4.10
2023-12-30T12:22:22.934Z,6.30
2023-12-30T12:24:53.034Z,5.60
2023-12-30T12:27:23.555Z,7.60
2023-12-30T12:29:54.505Z,5.60
2023-12-30T12:32:26.039Z,8.30
2023-12-30T12:34:55.820Z,6.50
2023-12-30T12:37:26.263Z,5.80
2023-12-30T12:39:56.767Z,5.60
2023-12-30T12:42:30.892Z,5.50
2023-12-30T12:45:04.881Z,5.00
2023-12-30T12:47:35.171Z,5.30
2023-12-30T12:50:05.930Z,7.50
2023-12-30T12:52:35.118Z,4.90
2023-12-30T12:55:04.865Z,5.20
2023-12-30T12:57:34.925Z,5.20
2023-12-30T13:00:10.777Z,5.90
2023-12-30T13:02:42.374Z,5.20
2023-12-30T13:05:11.546Z,5.70
2023-12-30T13:07:43.590Z,4.20
2023-12-30T13:10:34.258Z,4.20
2023-12-30T13:13:08.388Z,4.70
2023-12-30T13:15:40.333Z,4.00
2023-12-30T13:18:14.929Z,4.00
2023-12-30T13:20:46.885Z,8.40
2023-12-30T13:23:17.611Z,4.80
2023-12-30T13:25:50.193Z,4.00
2023-12-30T13:28:21.194Z,6.70
2023-12-30T13:30:50.335Z,4.70
2023-12-30T13:33:22.949Z,4.60
2023-12-30T13:35:53.724Z,4.20
2023-12-30T13:38:25.551Z,4.90
2023-12-30T13:40:55.629Z,26.10
2023-12-30T13:43:28.621Z,9.50
2023-12-30T13:46:18.706Z,15.80
2023-12-30T13:49:27.411Z,10.80
2023-12-30T13:52:01.943Z,10.00
2023-12-30T13:54:31.866Z,8.10
2023-12-30T13:57:14.237Z,8.50
2023-12-30T13:59:47.065Z,6.80
2023-12-30T14:02:20.085Z,4.00
2023-12-30T14:04:58.832Z,3.80
2023-12-30T14:07:31.900Z,2.80
2023-12-30T14:10:05.909Z,3.20
2023-12-30T14:12:36.660Z,3.10
2023-12-30T14:15:11.746Z,7.60
2023-12-30T14:17:44.135Z,15.50
2023-12-30T14:20:15.810Z,8.90
2023-12-30T14:22:45.657Z,2.90
2023-12-30T14:25:15.341Z,4.20
2023-12-30T14:27:45.241Z,4.80
2023-12-30T14:30:15.361Z,3.10
2023-12-30T14:32:46.040Z,4.10
2023-12-30T14:35:17.223Z,3.80
2023-12-30T14:37:46.123Z,4.00
2023-12-30T14:40:15.445Z,3.30
2023-12-30T14:42:46.235Z,3.40
2023-12-30T14:45:20.065Z,3.40
2023-12-30T14:47:50.982Z,3.30
2023-12-30T14:50:21.449Z,3.50
2023-12-30T14:52:52.982Z,3.60
2023-12-30T14:55:23.769Z,4.10
2023-12-30T14:57:55.583Z,5.40
2023-12-30T15:00:25.771Z,3.50
2023-12-30T15:02:56.344Z,3.90
2023-12-30T15:05:25.187Z,4.20
2023-12-30T15:07:56.749Z,4.90
2023-12-30T15:10:26.877Z,3.90
2023-12-30T15:12:58.390Z,4.40
2023-12-30T15:15:27.230Z,4.70
2023-12-30T15:17:56.365Z,6.20
2023-12-30T15:20:27.532Z,3.50
2023-12-30T15:22:58.445Z,4.00
2023-12-30T15:25:28.162Z,3.60
2023-12-30T15:27:57.018Z,3.60
2023-12-30T15:30:25.722Z,6.20
2023-12-30T15:32:56.599Z,14.50
2023-12-30T15:35:26.398Z,13.30
2023-12-30T15:37:55.671Z,6.90
2023-12-30T15:40:25.121Z,10.70
2023-12-30T15:42:54.049Z,7.30
2023-12-30T15:45:23.063Z,5.90
2023-12-30T15:47:53.232Z,5.20
2023-12-30T15:50:22.118Z,17.30
2023-12-30T15:52:51.041Z,8.00
2023-12-30T15:55:20.915Z,13.90
2023-12-30T15:57:53.351Z,16.10
2023-12-30T16:00:23.104Z,13.30
2023-12-30T16:02:53.443Z,8.30
2023-12-30T16:05:25.710Z,16.50
2023-12-30T16:07:55.139Z,12.30
2023-12-30T16:10:27.833Z,15.20
2023-12-30T16:12:58.451Z,7.10
2023-12-30T16:15:29.729Z,5.50
2023-12-30T16:17:58.596Z,4.80
2023-12-30T16:20:28.031Z,4.00
2023-12-30T16:22:57.653Z,4.90
2023-12-30T16:25:27.586Z,6.40
2023-12-30T16:27:56.789Z,34.80
2023-12-30T16:30:25.643Z,12.80
2023-12-30T16:32:54.879Z,9.60
2023-12-30T16:35:24.954Z,27.50
2023-12-30T16:37:53.916Z,18.20
2023-12-30T16:40:23.213Z,20.00
2023-12-30T16:42:54.625Z,17.60
2023-12-30T16:45:23.540Z,21.90
2023-12-30T16:47:52.715Z,10.10
2023-12-30T16:50:21.518Z,8.70
2023-12-30T16:52:50.775Z,13.30
2023-12-30T16:55:19.982Z,14.40
2023-12-30T16:57:49.293Z,6.10
2023-12-30T17:00:18.623Z,6.50
2023-12-30T17:02:48.395Z,7.50
2023-12-30T17:05:18.397Z,6.20
2023-12-30T17:07:48.692Z,4.20
2023-12-30T17:10:18.783Z,3.70
2023-12-30T17:12:48.177Z,4.30
2023-12-30T17:15:17.933Z,4.70
2023-12-30T17:17:46.870Z,4.50
2023-12-30T17:20:17.989Z,4.50
2023-12-30T17:22:48.210Z,4.90
2023-12-30T17:25:17.433Z,5.30
2023-12-30T17:27:47.086Z,4.60
2023-12-30T17:30:16.516Z,5.50
2023-12-30T17:32:45.786Z,7.60
2023-12-30T17:35:16.139Z,8.20
2023-12-30T17:37:45.580Z,9.80
2023-12-30T17:40:19.467Z,12.80
2023-12-30T17:42:49.417Z,12.00
2023-12-30T17:45:19.154Z,8.80
2023-12-30T17:47:51.155Z,9.00
2023-12-30T17:50:21.582Z,8.70
2023-12-30T17:52:51.383Z,10.60
2023-12-30T17:55:20.312Z,9.60
2023-12-30T17:57:49.120Z,11.00
2023-12-30T18:00:18.387Z,8.40
2023-12-30T18:02:47.712Z,7.90
2023-12-30T18:05:16.748Z,8.50
2023-12-30T18:07:46.323Z,11.70
2023-12-30T18:10:15.774Z,19.40
2023-12-30T18:12:50.694Z,20.10
2023-12-30T18:15:20.579Z,9.90
2023-12-30T18:17:49.797Z,8.80
2023-12-30T18:20:19.488Z,7.80
2023-12-30T18:22:48.888Z,6.90
2023-12-30T18:25:18.016Z,9.30
2023-12-30T18:27:47.781Z,11.30
2023-12-30T18:30:17.233Z,16.20
2023-12-30T18:32:47.002Z,24.00
2023-12-30T18:35:15.945Z,21.70
2023-12-30T18:37:45.414Z,17.00
2023-12-30T18:40:18.546Z,13.70
2023-12-30T18:42:50.473Z,21.40
2023-12-30T18:45:22.442Z,12.10
2023-12-30T18:48:06.762Z,11.10
2023-12-30T18:50:35.681Z,16.30
2023-12-30T18:53:14.120Z,11.80
2023-12-30T18:55:55.386Z,9.40
2023-12-30T18:58:23.934Z,7.40
2023-12-30T19:00:57.601Z,7.60
2023-12-30T19:03:26.423Z,7.10
2023-12-30T19:05:59.434Z,5.80
2023-12-30T19:08:29.383Z,7.50
2023-12-30T19:10:58.515Z,6.40
2023-12-30T19:13:27.808Z,7.20
2023-12-30T19:15:56.900Z,10.00
2023-12-30T19:18:26.030Z,10.70
2023-12-30T19:20:57.412Z,14.00
2023-12-30T19:23:27.014Z,8.60
2023-12-30T19:25:56.106Z,10.00
2023-12-30T19:28:29.205Z,7.90
2023-12-30T19:31:00.172Z,8.40
2023-12-30T19:33:32.147Z,8.40
2023-12-30T19:36:04.435Z,12.90
2023-12-30T19:38:34.220Z,19.10
2023-12-30T19:41:03.425Z,13.50
2023-12-30T19:43:36.260Z,13.80
2023-12-30T19:46:09.254Z,14.70
2023-12-30T19:48:38.162Z,8.50
2023-12-30T19:51:07.959Z,12.60
2023-12-30T19:53:36.980Z,12.70
2023-12-30T19:56:09.570Z,7.10
2023-12-30T19:58:38.354Z,10.70
2023-12-30T20:01:07.430Z,14.50
2023-12-30T20:03:36.949Z,9.00
2023-12-30T20:06:08.128Z,9.60
2023-12-30T20:08:41.302Z,7.60
2023-12-30T20:11:14.791Z,6.70
2023-12-30T20:13:48.616Z,7.90
2023-12-30T20:16:18.283Z,12.90
2023-12-30T20:18:50.119Z,18.80
2023-12-30T20:21:20.132Z,15.10
2023-12-30T20:23:49.360Z,24.80
2023-12-30T20:26:18.254Z,13.00
2023-12-30T20:28:49.310Z,13.10
2023-12-30T20:31:20.599Z,11.80
2023-12-30T20:33:49.772Z,26.20
2023-12-30T20:36:23.908Z,30.50
2023-12-30T20:38:53.764Z,23.80
2023-12-30T20:41:22.476Z,15.80
2023-12-30T20:43:51.556Z,22.60
2023-12-30T20:46:21.138Z,17.90
2023-12-30T20:48:50.399Z,10.50
2023-12-30T20:51:19.977Z,10.20
2023-12-30T20:53:52.554Z,14.20
2023-12-30T20:56:21.469Z,14.00
2023-12-30T20:58:51.258Z,12.20
2023-12-30T21:01:21.046Z,13.80
2023-12-30T21:03:51.279Z,13.60
2023-12-30T21:06:20.819Z,10.90
2023-12-30T21:08:51.096Z,6.30
2023-12-30T21:11:21.214Z,5.70
2023-12-30T21:13:50.307Z,5.50
2023-12-30T21:16:22.119Z,6.00
2023-12-30T21:18:51.579Z,6.40
2023-12-30T21:21:20.871Z,7.80
2023-12-30T21:23:50.539Z,15.70
2023-12-30T21:26:22.808Z,24.00
2023-12-30T21:28:52.106Z,16.60
2023-12-30T21:31:20.965Z,12.40
2023-12-30T21:33:50.759Z,13.80
2023-12-30T21:36:20.700Z,10.80
2023-12-30T21:38:50.046Z,13.30
2023-12-30T21:41:25.230Z,11.30
2023-12-30T21:43:53.873Z,10.70
2023-12-30T21:46:24.903Z,10.10
2023-12-30T21:49:00.777Z,9.60
2023-12-30T21:51:29.852Z,10.60
2023-12-30T21:53:59.174Z,9.20
2023-12-30T21:56:28.179Z,9.70
2023-12-30T21:58:56.726Z,12.60
2023-12-30T22:01:25.986Z,19.10
2023-12-30T22:03:54.694Z,17.60
2023-12-30T22:06:23.391Z,16.30
2023-12-30T22:08:52.488Z,15.70
2023-12-30T22:11:21.662Z,13.70
2023-12-30T22:13:50.686Z,11.40
2023-12-30T22:16:20.106Z,8.70
2023-12-30T22:18:49.352Z,16.20
2023-12-30T22:21:19.520Z,10.70
2023-12-30T22:23:48.977Z,11.70
2023-12-30T22:26:19.216Z,7.40
2023-12-30T22:28:48.126Z,6.80
2023-12-30T22:31:17.461Z,7.50
2023-12-30T22:33:46.400Z,11.20
2023-12-30T22:36:15.528Z,8.90
2023-12-30T22:38:44.276Z,8.10
2023-12-30T22:41:13.353Z,8.70
2023-12-30T22:43:42.469Z,9.30
2023-12-30T22:46:11.632Z,9.90
2023-12-30T22:48:40.299Z,9.60
2023-12-30T22:51:09.393Z,10.90
2023-12-30T22:53:41.365Z,9.50
2023-12-30T22:56:11.393Z,9.60
2023-12-30T22:58:40.599Z,13.90
2023-12-30T23:01:09.527Z,15.10
2023-12-30T23:03:40.817Z,12.30
2023-12-30T23:06:10.428Z,12.50
2023-12-30T23:08:39.577Z,14.20
2023-12-30T23:11:09.045Z,16.00
2023-12-30T23:13:38.808Z,16.50
2023-12-30T23:16:09.027Z,16.30
2023-12-30T23:18:38.500Z,16.20
2023-12-30T23:21:08.358Z,17.10
2023-12-30T23:23:38.202Z,18.40
2023-12-30T23:26:09.560Z,11.20
2023-12-30T23:28:38.823Z,10.90
2023-12-30T23:31:07.834Z,9.00
2023-12-30T23:33:37.008Z,9.70
2023-12-30T23:36:06.202Z,8.90
2023-12-30T23:38:34.963Z,8.90
2023-12-30T23:41:04.062Z,8.00
2023-12-30T23:43:33.080Z,7.60
2023-12-30T23:46:02.084Z,7.90
2023-12-30T23:48:30.609Z,9.70
2023-12-30T23:50:59.101Z,10.70
2023-12-30T23:53:27.979Z,12.20
2023-12-30T23:55:56.858Z,13.30
2023-12-30T23:58:25.442Z,11.50
